sensor_id;sensor_type;location;lat;lon;timestamp;P1;durP1;ratioP1;P2;durP2;ratioP2
22644;SDS011;11489;50.834;6.752;2023-02-16T00:02:46;32.70;;;15.17;;
22644;SDS011;11489;50.834;6.752;2023-02-16T00:05:21;28.33;;;14.73;;
22644;SDS011;11489;50.834;6.752;2023-02-16T00:07:50;29.33;;;15.10;;
22644;SDS011;11489;50.834;6.752;2023-02-16T00:10:16;30.03;;;14.47;;
22644;SDS011;11489;50.834;6.752;2023-02-16T00:12:42;27.40;;;14.20;;
22644;SDS011;11489;50.834;6.752;2023-02-16T00:15:27;30.60;;;13.80;;
22644;SDS011;11489;50.834;6.752;2023-02-16T00:17:53;26.93;;;14.60;;
22644;SDS011;11489;50.834;6.752;2023-02-16T00:20:21;29.97;;;14.93;;
22644;SDS011;11489;50.834;6.752;2023-02-16T00:22:47;36.70;;;14.97;;
22644;SDS011;11489;50.834;6.752;2023-02-16T00:25:13;33.10;;;14.63;;
22644;SDS011;11489;50.834;6.752;2023-02-16T00:27:38;30.97;;;14.30;;
22644;SDS011;11489;50.834;6.752;2023-02-16T00:30:14;29.37;;;14.80;;
22644;SDS011;11489;50.834;6.752;2023-02-16T00:32:41;29.00;;;13.60;;
22644;SDS011;11489;50.834;6.752;2023-02-16T00:35:17;28.67;;;13.70;;
22644;SDS011;11489;50.834;6.752;2023-02-16T00:37:44;25.77;;;13.17;;
22644;SDS011;11489;50.834;6.752;2023-02-16T00:40:11;27.00;;;13.60;;
22644;SDS011;11489;50.834;6.752;2023-02-16T00:42:38;25.40;;;13.43;;
22644;SDS011;11489;50.834;6.752;2023-02-16T00:45:04;28.70;;;14.43;;
22644;SDS011;11489;50.834;6.752;2023-02-16T00:47:39;32.23;;;13.87;;
22644;SDS011;11489;50.834;6.752;2023-02-16T00:52:41;27.40;;;13.63;;
22644;SDS011;11489;50.834;6.752;2023-02-16T00:55:11;30.50;;;13.20;;
22644;SDS011;11489;50.834;6.752;2023-02-16T00:57:47;30.57;;;14.20;;
22644;SDS011;11489;50.834;6.752;2023-02-16T01:00:53;30.47;;;13.30;;
22644;SDS011;11489;50.834;6.752;2023-02-16T01:03:23;32.60;;;14.00;;
22644;SDS011;11489;50.834;6.752;2023-02-16T01:05:51;26.70;;;12.73;;
22644;SDS011;11489;50.834;6.752;2023-02-16T01:08:36;26.10;;;12.70;;
22644;SDS011;11489;50.834;6.752;2023-02-16T01:11:20;25.43;;;12.77;;
22644;SDS011;11489;50.834;6.752;2023-02-16T01:13:48;25.47;;;12.93;;
22644;SDS011;11489;50.834;6.752;2023-02-16T01:16:22;29.13;;;13.63;;
22644;SDS011;11489;50.834;6.752;2023-02-16T01:18:48;26.87;;;13.53;;
22644;SDS011;11489;50.834;6.752;2023-02-16T01:21:15;30.30;;;13.43;;
22644;SDS011;11489;50.834;6.752;2023-02-16T01:23:41;28.97;;;13.67;;
22644;SDS011;11489;50.834;6.752;2023-02-16T01:26:10;29.40;;;13.47;;
22644;SDS011;11489;50.834;6.752;2023-02-16T01:28:41;28.63;;;13.00;;
22644;SDS011;11489;50.834;6.752;2023-02-16T01:31:11;28.07;;;13.67;;
22644;SDS011;11489;50.834;6.752;2023-02-16T01:33:37;31.93;;;14.30;;
22644;SDS011;11489;50.834;6.752;2023-02-16T01:36:04;30.40;;;14.37;;
22644;SDS011;11489;50.834;6.752;2023-02-16T01:38:36;28.77;;;14.27;;
22644;SDS011;11489;50.834;6.752;2023-02-16T01:41:17;29.70;;;13.97;;
22644;SDS011;11489;50.834;6.752;2023-02-16T01:44:03;29.20;;;14.30;;
22644;SDS011;11489;50.834;6.752;2023-02-16T01:46:37;28.27;;;13.97;;
22644;SDS011;11489;50.834;6.752;2023-02-16T01:49:10;28.73;;;13.73;;
22644;SDS011;11489;50.834;6.752;2023-02-16T01:51:58;27.70;;;14.57;;
22644;SDS011;11489;50.834;6.752;2023-02-16T01:54:48;30.17;;;14.27;;
22644;SDS011;11489;50.834;6.752;2023-02-16T02:02:53;30.63;;;14.10;;
22644;SDS011;11489;50.834;6.752;2023-02-16T02:05:54;30.27;;;14.13;;
22644;SDS011;11489;50.834;6.752;2023-02-16T02:08:31;32.40;;;14.63;;
22644;SDS011;11489;50.834;6.752;2023-02-16T02:13:52;33.17;;;14.40;;
22644;SDS011;11489;50.834;6.752;2023-02-16T02:16:22;29.90;;;14.23;;
22644;SDS011;11489;50.834;6.752;2023-02-16T02:18:50;31.37;;;14.50;;
22644;SDS011;11489;50.834;6.752;2023-02-16T02:24:33;31.17;;;15.23;;
22644;SDS011;11489;50.834;6.752;2023-02-16T02:35:35;29.40;;;14.03;;
22644;SDS011;11489;50.834;6.752;2023-02-16T02:38:21;30.87;;;14.10;;
22644;SDS011;11489;50.834;6.752;2023-02-16T02:40:52;29.83;;;13.33;;
22644;SDS011;11489;50.834;6.752;2023-02-16T02:43:37;29.17;;;14.63;;
22644;SDS011;11489;50.834;6.752;2023-02-16T02:46:10;27.73;;;13.93;;
22644;SDS011;11489;50.834;6.752;2023-02-16T02:48:42;29.97;;;14.83;;
22644;SDS011;11489;50.834;6.752;2023-02-16T02:53:53;28.93;;;13.57;;
22644;SDS011;11489;50.834;6.752;2023-02-16T02:56:55;28.37;;;13.57;;
22644;SDS011;11489;50.834;6.752;2023-02-16T02:59:44;30.03;;;14.37;;
22644;SDS011;11489;50.834;6.752;2023-02-16T03:02:35;32.60;;;14.97;;
22644;SDS011;11489;50.834;6.752;2023-02-16T03:05:02;29.37;;;13.53;;
22644;SDS011;11489;50.834;6.752;2023-02-16T03:07:30;28.23;;;14.20;;
22644;SDS011;11489;50.834;6.752;2023-02-16T03:10:16;32.20;;;14.03;;
22644;SDS011;11489;50.834;6.752;2023-02-16T03:13:07;31.03;;;14.33;;
22644;SDS011;11489;50.834;6.752;2023-02-16T03:15:42;31.70;;;14.47;;
22644;SDS011;11489;50.834;6.752;2023-02-16T03:18:10;28.77;;;14.53;;
22644;SDS011;11489;50.834;6.752;2023-02-16T03:20:57;30.10;;;13.77;;
22644;SDS011;11489;50.834;6.752;2023-02-16T03:23:42;27.33;;;13.47;;
22644;SDS011;11489;50.834;6.752;2023-02-16T03:26:30;29.03;;;14.10;;
22644;SDS011;11489;50.834;6.752;2023-02-16T03:29:15;30.10;;;14.40;;
22644;SDS011;11489;50.834;6.752;2023-02-16T03:31:47;29.50;;;14.23;;
22644;SDS011;11489;50.834;6.752;2023-02-16T03:34:14;31.40;;;14.57;;
22644;SDS011;11489;50.834;6.752;2023-02-16T03:36:42;28.93;;;14.00;;
22644;SDS011;11489;50.834;6.752;2023-02-16T03:39:11;30.00;;;14.87;;
22644;SDS011;11489;50.834;6.752;2023-02-16T03:41:38;27.53;;;13.90;;
22644;SDS011;11489;50.834;6.752;2023-02-16T03:44:10;30.07;;;14.23;;
22644;SDS011;11489;50.834;6.752;2023-02-16T03:46:35;30.83;;;14.53;;
22644;SDS011;11489;50.834;6.752;2023-02-16T03:49:01;30.37;;;14.03;;
22644;SDS011;11489;50.834;6.752;2023-02-16T03:51:27;29.30;;;14.00;;
22644;SDS011;11489;50.834;6.752;2023-02-16T03:53:52;31.17;;;15.00;;
22644;SDS011;11489;50.834;6.752;2023-02-16T03:56:18;30.57;;;14.03;;
22644;SDS011;11489;50.834;6.752;2023-02-16T03:58:44;30.00;;;13.87;;
22644;SDS011;11489;50.834;6.752;2023-02-16T04:01:09;30.93;;;14.30;;
22644;SDS011;11489;50.834;6.752;2023-02-16T04:03:35;25.50;;;13.90;;
22644;SDS011;11489;50.834;6.752;2023-02-16T04:06:01;30.10;;;13.80;;
22644;SDS011;11489;50.834;6.752;2023-02-16T04:08:27;30.43;;;13.97;;
22644;SDS011;11489;50.834;6.752;2023-02-16T04:10:52;31.43;;;14.30;;
22644;SDS011;11489;50.834;6.752;2023-02-16T04:13:21;31.07;;;14.30;;
22644;SDS011;11489;50.834;6.752;2023-02-16T04:15:47;27.63;;;13.87;;
22644;SDS011;11489;50.834;6.752;2023-02-16T04:18:13;31.53;;;14.37;;
22644;SDS011;11489;50.834;6.752;2023-02-16T04:20:39;33.23;;;15.07;;
22644;SDS011;11489;50.834;6.752;2023-02-16T04:23:04;31.90;;;15.00;;
22644;SDS011;11489;50.834;6.752;2023-02-16T04:25:31;31.83;;;15.23;;
22644;SDS011;11489;50.834;6.752;2023-02-16T04:27:57;31.83;;;14.93;;
22644;SDS011;11489;50.834;6.752;2023-02-16T04:30:26;29.83;;;14.20;;
22644;SDS011;11489;50.834;6.752;2023-02-16T04:32:54;31.57;;;14.50;;
22644;SDS011;11489;50.834;6.752;2023-02-16T04:35:21;31.93;;;14.97;;
22644;SDS011;11489;50.834;6.752;2023-02-16T04:37:47;32.97;;;14.80;;
22644;SDS011;11489;50.834;6.752;2023-02-16T04:40:13;33.47;;;15.47;;
22644;SDS011;11489;50.834;6.752;2023-02-16T04:42:40;31.83;;;14.57;;
22644;SDS011;11489;50.834;6.752;2023-02-16T04:45:07;27.97;;;14.17;;
22644;SDS011;11489;50.834;6.752;2023-02-16T04:47:34;34.90;;;15.63;;
22644;SDS011;11489;50.834;6.752;2023-02-16T04:50:00;37.73;;;16.00;;
22644;SDS011;11489;50.834;6.752;2023-02-16T04:52:25;31.77;;;14.77;;
22644;SDS011;11489;50.834;6.752;2023-02-16T04:54:51;32.93;;;15.53;;
22644;SDS011;11489;50.834;6.752;2023-02-16T04:57:17;34.63;;;16.60;;
22644;SDS011;11489;50.834;6.752;2023-02-16T04:59:43;33.83;;;16.00;;
22644;SDS011;11489;50.834;6.752;2023-02-16T05:02:09;38.87;;;16.37;;
22644;SDS011;11489;50.834;6.752;2023-02-16T05:04:35;39.43;;;17.37;;
22644;SDS011;11489;50.834;6.752;2023-02-16T05:07:01;35.53;;;16.10;;
22644;SDS011;11489;50.834;6.752;2023-02-16T05:09:26;34.73;;;16.33;;
22644;SDS011;11489;50.834;6.752;2023-02-16T05:11:52;35.27;;;16.87;;
22644;SDS011;11489;50.834;6.752;2023-02-16T05:14:36;39.37;;;17.27;;
22644;SDS011;11489;50.834;6.752;2023-02-16T05:19:49;33.53;;;15.33;;
22644;SDS011;11489;50.834;6.752;2023-02-16T05:22:16;36.43;;;16.03;;
22644;SDS011;11489;50.834;6.752;2023-02-16T05:24:42;37.63;;;16.50;;
22644;SDS011;11489;50.834;6.752;2023-02-16T05:27:10;33.50;;;15.73;;
22644;SDS011;11489;50.834;6.752;2023-02-16T05:29:38;33.87;;;15.80;;
22644;SDS011;11489;50.834;6.752;2023-02-16T05:32:03;34.03;;;16.10;;
22644;SDS011;11489;50.834;6.752;2023-02-16T05:34:29;29.77;;;14.43;;
22644;SDS011;11489;50.834;6.752;2023-02-16T05:36:55;30.20;;;14.80;;
22644;SDS011;11489;50.834;6.752;2023-02-16T05:39:21;35.47;;;16.20;;
22644;SDS011;11489;50.834;6.752;2023-02-16T05:41:46;30.67;;;15.00;;
22644;SDS011;11489;50.834;6.752;2023-02-16T05:44:12;32.37;;;15.23;;
22644;SDS011;11489;50.834;6.752;2023-02-16T05:46:38;37.47;;;15.23;;
22644;SDS011;11489;50.834;6.752;2023-02-16T05:49:05;34.73;;;16.23;;
22644;SDS011;11489;50.834;6.752;2023-02-16T05:51:31;29.80;;;15.00;;
22644;SDS011;11489;50.834;6.752;2023-02-16T05:53:57;31.17;;;15.13;;
22644;SDS011;11489;50.834;6.752;2023-02-16T05:56:23;33.37;;;14.93;;
22644;SDS011;11489;50.834;6.752;2023-02-16T05:58:49;32.13;;;15.23;;
22644;SDS011;11489;50.834;6.752;2023-02-16T06:01:15;31.03;;;14.03;;
22644;SDS011;11489;50.834;6.752;2023-02-16T06:03:42;33.20;;;15.47;;
22644;SDS011;11489;50.834;6.752;2023-02-16T06:06:08;30.70;;;15.60;;
22644;SDS011;11489;50.834;6.752;2023-02-16T06:08:34;33.87;;;15.80;;
22644;SDS011;11489;50.834;6.752;2023-02-16T06:11:01;36.03;;;15.77;;
22644;SDS011;11489;50.834;6.752;2023-02-16T06:13:27;34.03;;;15.60;;
22644;SDS011;11489;50.834;6.752;2023-02-16T06:15:53;34.20;;;16.33;;
22644;SDS011;11489;50.834;6.752;2023-02-16T06:18:21;31.93;;;16.47;;
22644;SDS011;11489;50.834;6.752;2023-02-16T06:20:48;33.10;;;16.33;;
22644;SDS011;11489;50.834;6.752;2023-02-16T06:23:14;31.97;;;15.60;;
22644;SDS011;11489;50.834;6.752;2023-02-16T06:25:40;33.93;;;16.17;;
22644;SDS011;11489;50.834;6.752;2023-02-16T06:28:12;35.77;;;16.63;;
22644;SDS011;11489;50.834;6.752;2023-02-16T06:30:38;34.73;;;17.23;;
22644;SDS011;11489;50.834;6.752;2023-02-16T06:33:06;38.47;;;17.23;;
22644;SDS011;11489;50.834;6.752;2023-02-16T06:35:32;36.03;;;17.23;;
22644;SDS011;11489;50.834;6.752;2023-02-16T06:37:58;37.43;;;17.77;;
22644;SDS011;11489;50.834;6.752;2023-02-16T06:40:23;37.67;;;17.70;;
22644;SDS011;11489;50.834;6.752;2023-02-16T06:42:49;37.97;;;16.97;;
22644;SDS011;11489;50.834;6.752;2023-02-16T06:45:15;36.33;;;18.27;;
22644;SDS011;11489;50.834;6.752;2023-02-16T06:47:41;38.90;;;17.97;;
22644;SDS011;11489;50.834;6.752;2023-02-16T06:50:07;36.57;;;17.10;;
22644;SDS011;11489;50.834;6.752;2023-02-16T06:52:34;38.30;;;18.57;;
22644;SDS011;11489;50.834;6.752;2023-02-16T06:55:00;45.27;;;19.90;;
22644;SDS011;11489;50.834;6.752;2023-02-16T06:57:25;40.60;;;18.20;;
22644;SDS011;11489;50.834;6.752;2023-02-16T06:59:51;39.30;;;18.13;;
22644;SDS011;11489;50.834;6.752;2023-02-16T07:02:17;37.17;;;18.73;;
22644;SDS011;11489;50.834;6.752;2023-02-16T07:04:42;37.70;;;18.17;;
22644;SDS011;11489;50.834;6.752;2023-02-16T07:07:08;38.60;;;18.27;;
22644;SDS011;11489;50.834;6.752;2023-02-16T07:09:34;42.97;;;19.27;;
22644;SDS011;11489;50.834;6.752;2023-02-16T07:12:01;36.83;;;18.60;;
22644;SDS011;11489;50.834;6.752;2023-02-16T07:14:27;39.17;;;18.87;;
22644;SDS011;11489;50.834;6.752;2023-02-16T07:16:54;37.17;;;18.57;;
22644;SDS011;11489;50.834;6.752;2023-02-16T07:19:23;37.53;;;18.33;;
22644;SDS011;11489;50.834;6.752;2023-02-16T07:21:49;36.07;;;18.53;;
22644;SDS011;11489;50.834;6.752;2023-02-16T07:24:15;37.20;;;18.83;;
22644;SDS011;11489;50.834;6.752;2023-02-16T07:26:40;39.30;;;19.27;;
22644;SDS011;11489;50.834;6.752;2023-02-16T07:29:06;38.93;;;18.93;;
22644;SDS011;11489;50.834;6.752;2023-02-16T07:31:32;37.77;;;18.90;;
22644;SDS011;11489;50.834;6.752;2023-02-16T07:33:58;35.23;;;17.83;;
22644;SDS011;11489;50.834;6.752;2023-02-16T07:36:24;39.27;;;18.43;;
22644;SDS011;11489;50.834;6.752;2023-02-16T07:38:49;35.93;;;18.63;;
22644;SDS011;11489;50.834;6.752;2023-02-16T07:41:15;38.87;;;20.07;;
22644;SDS011;11489;50.834;6.752;2023-02-16T07:43:41;41.33;;;19.30;;
22644;SDS011;11489;50.834;6.752;2023-02-16T07:46:08;40.10;;;19.13;;
22644;SDS011;11489;50.834;6.752;2023-02-16T07:48:34;39.30;;;19.33;;
22644;SDS011;11489;50.834;6.752;2023-02-16T07:51:00;35.23;;;18.77;;
22644;SDS011;11489;50.834;6.752;2023-02-16T07:53:26;36.90;;;19.10;;
22644;SDS011;11489;50.834;6.752;2023-02-16T07:55:52;38.97;;;18.37;;
22644;SDS011;11489;50.834;6.752;2023-02-16T07:58:17;38.97;;;18.90;;
22644;SDS011;11489;50.834;6.752;2023-02-16T08:01:06;37.43;;;18.83;;
22644;SDS011;11489;50.834;6.752;2023-02-16T08:03:33;38.23;;;19.70;;
22644;SDS011;11489;50.834;6.752;2023-02-16T08:05:59;43.87;;;20.27;;
22644;SDS011;11489;50.834;6.752;2023-02-16T08:08:26;39.87;;;19.97;;
22644;SDS011;11489;50.834;6.752;2023-02-16T08:10:51;40.22;;;20.20;;
22644;SDS011;11489;50.834;6.752;2023-02-16T08:13:17;43.33;;;20.20;;
22644;SDS011;11489;50.834;6.752;2023-02-16T08:15:43;41.00;;;20.40;;
22644;SDS011;11489;50.834;6.752;2023-02-16T08:18:09;43.77;;;20.07;;
22644;SDS011;11489;50.834;6.752;2023-02-16T08:20:35;40.83;;;20.17;;
22644;SDS011;11489;50.834;6.752;2023-02-16T08:23:01;38.17;;;19.38;;
22644;SDS011;11489;50.834;6.752;2023-02-16T08:25:26;39.85;;;20.30;;
22644;SDS011;11489;50.834;6.752;2023-02-16T08:27:52;43.03;;;20.10;;
22644;SDS011;11489;50.834;6.752;2023-02-16T08:30:18;37.28;;;20.05;;
22644;SDS011;11489;50.834;6.752;2023-02-16T08:32:44;40.60;;;20.17;;
22644;SDS011;11489;50.834;6.752;2023-02-16T08:35:10;41.50;;;20.30;;
22644;SDS011;11489;50.834;6.752;2023-02-16T08:37:36;40.15;;;20.83;;
22644;SDS011;11489;50.834;6.752;2023-02-16T08:40:03;39.33;;;19.42;;
22644;SDS011;11489;50.834;6.752;2023-02-16T08:42:32;39.85;;;20.10;;
22644;SDS011;11489;50.834;6.752;2023-02-16T08:44:57;39.60;;;19.60;;
22644;SDS011;11489;50.834;6.752;2023-02-16T08:47:23;40.75;;;19.75;;
22644;SDS011;11489;50.834;6.752;2023-02-16T08:49:49;38.08;;;19.38;;
22644;SDS011;11489;50.834;6.752;2023-02-16T08:52:14;38.92;;;20.77;;
22644;SDS011;11489;50.834;6.752;2023-02-16T08:54:40;36.50;;;20.30;;
22644;SDS011;11489;50.834;6.752;2023-02-16T08:57:06;37.88;;;20.48;;
22644;SDS011;11489;50.834;6.752;2023-02-16T08:59:31;39.13;;;19.42;;
22644;SDS011;11489;50.834;6.752;2023-02-16T09:01:58;40.58;;;20.35;;
22644;SDS011;11489;50.834;6.752;2023-02-16T09:04:25;39.60;;;20.75;;
22644;SDS011;11489;50.834;6.752;2023-02-16T09:06:53;40.88;;;20.30;;
22644;SDS011;11489;50.834;6.752;2023-02-16T09:09:20;48.25;;;20.58;;
22644;SDS011;11489;50.834;6.752;2023-02-16T09:11:47;39.58;;;20.67;;
22644;SDS011;11489;50.834;6.752;2023-02-16T09:14:13;39.08;;;20.23;;
22644;SDS011;11489;50.834;6.752;2023-02-16T09:16:41;39.75;;;20.73;;
22644;SDS011;11489;50.834;6.752;2023-02-16T09:19:16;35.63;;;19.90;;
22644;SDS011;11489;50.834;6.752;2023-02-16T09:21:43;34.47;;;19.80;;
22644;SDS011;11489;50.834;6.752;2023-02-16T09:24:11;31.70;;;18.63;;
22644;SDS011;11489;50.834;6.752;2023-02-16T09:26:37;37.72;;;20.25;;
22644;SDS011;11489;50.834;6.752;2023-02-16T09:29:06;34.28;;;20.35;;
22644;SDS011;11489;50.834;6.752;2023-02-16T09:31:34;39.78;;;21.05;;
22644;SDS011;11489;50.834;6.752;2023-02-16T09:34:02;35.55;;;20.73;;
22644;SDS011;11489;50.834;6.752;2023-02-16T09:36:30;36.95;;;20.75;;
22644;SDS011;11489;50.834;6.752;2023-02-16T09:38:56;37.13;;;21.42;;
22644;SDS011;11489;50.834;6.752;2023-02-16T09:47:04;38.17;;;21.17;;
22644;SDS011;11489;50.834;6.752;2023-02-16T09:49:41;39.20;;;21.65;;
22644;SDS011;11489;50.834;6.752;2023-02-16T09:52:22;37.60;;;20.73;;
22644;SDS011;11489;50.834;6.752;2023-02-16T09:55:04;33.75;;;19.40;;
22644;SDS011;11489;50.834;6.752;2023-02-16T10:00:28;30.15;;;17.77;;
22644;SDS011;11489;50.834;6.752;2023-02-16T10:03:04;32.05;;;18.25;;
22644;SDS011;11489;50.834;6.752;2023-02-16T10:05:46;29.70;;;17.35;;
22644;SDS011;11489;50.834;6.752;2023-02-16T10:08:23;26.80;;;16.60;;
22644;SDS011;11489;50.834;6.752;2023-02-16T10:14:17;27.15;;;16.15;;
22644;SDS011;11489;50.834;6.752;2023-02-16T10:20:20;25.48;;;16.15;;
22644;SDS011;11489;50.834;6.752;2023-02-16T10:25:45;24.45;;;15.45;;
22644;SDS011;11489;50.834;6.752;2023-02-16T10:28:19;26.95;;;16.00;;
22644;SDS011;11489;50.834;6.752;2023-02-16T10:30:56;27.25;;;15.63;;
22644;SDS011;11489;50.834;6.752;2023-02-16T10:33:43;26.80;;;16.33;;
22644;SDS011;11489;50.834;6.752;2023-02-16T10:36:39;29.65;;;16.13;;
22644;SDS011;11489;50.834;6.752;2023-02-16T10:42:33;25.55;;;15.95;;
22644;SDS011;11489;50.834;6.752;2023-02-16T10:44:56;24.90;;;16.15;;
22644;SDS011;11489;50.834;6.752;2023-02-16T10:47:33;25.75;;;15.30;;
22644;SDS011;11489;50.834;6.752;2023-02-16T10:50:06;26.90;;;16.40;;
22644;SDS011;11489;50.834;6.752;2023-02-16T10:52:43;24.00;;;15.60;;
22644;SDS011;11489;50.834;6.752;2023-02-16T10:55:10;27.45;;;15.98;;
22644;SDS011;11489;50.834;6.752;2023-02-16T10:57:37;25.08;;;15.70;;
22644;SDS011;11489;50.834;6.752;2023-02-16T11:00:14;26.33;;;15.35;;
22644;SDS011;11489;50.834;6.752;2023-02-16T11:02:43;25.38;;;15.95;;
22644;SDS011;11489;50.834;6.752;2023-02-16T11:07:58;21.55;;;13.55;;
22644;SDS011;11489;50.834;6.752;2023-02-16T11:10:42;23.58;;;13.98;;
22644;SDS011;11489;50.834;6.752;2023-02-16T11:13:34;21.88;;;13.23;;
22644;SDS011;11489;50.834;6.752;2023-02-16T11:16:06;19.33;;;12.02;;
22644;SDS011;11489;50.834;6.752;2023-02-16T11:18:37;20.27;;;12.63;;
22644;SDS011;11489;50.834;6.752;2023-02-16T11:21:07;19.17;;;12.00;;
22644;SDS011;11489;50.834;6.752;2023-02-16T11:23:35;19.33;;;11.98;;
22644;SDS011;11489;50.834;6.752;2023-02-16T11:28:39;20.05;;;11.73;;
22644;SDS011;11489;50.834;6.752;2023-02-16T11:33:55;18.85;;;11.27;;
22644;SDS011;11489;50.834;6.752;2023-02-16T11:36:41;18.00;;;11.75;;
22644;SDS011;11489;50.834;6.752;2023-02-16T11:39:23;21.63;;;11.27;;
22644;SDS011;11489;50.834;6.752;2023-02-16T11:41:52;19.58;;;11.13;;
22644;SDS011;11489;50.834;6.752;2023-02-16T11:46:49;20.58;;;11.75;;
22644;SDS011;11489;50.834;6.752;2023-02-16T11:49:26;22.77;;;12.18;;
22644;SDS011;11489;50.834;6.752;2023-02-16T11:51:53;20.80;;;11.90;;
22644;SDS011;11489;50.834;6.752;2023-02-16T11:54:18;19.52;;;11.32;;
22644;SDS011;11489;50.834;6.752;2023-02-16T11:56:59;20.77;;;11.95;;
22644;SDS011;11489;50.834;6.752;2023-02-16T11:59:26;22.23;;;11.35;;
22644;SDS011;11489;50.834;6.752;2023-02-16T12:02:11;19.15;;;11.63;;
22644;SDS011;11489;50.834;6.752;2023-02-16T12:07:32;20.77;;;12.65;;
22644;SDS011;11489;50.834;6.752;2023-02-16T12:15:44;22.25;;;12.55;;
22644;SDS011;11489;50.834;6.752;2023-02-16T12:37:49;21.77;;;12.55;;
22644;SDS011;11489;50.834;6.752;2023-02-16T12:40:38;20.50;;;12.00;;
22644;SDS011;11489;50.834;6.752;2023-02-16T12:43:22;19.08;;;11.90;;
22644;SDS011;11489;50.834;6.752;2023-02-16T12:45:55;19.05;;;11.90;;
22644;SDS011;11489;50.834;6.752;2023-02-16T12:48:36;18.35;;;11.73;;
22644;SDS011;11489;50.834;6.752;2023-02-16T12:51:20;19.98;;;12.40;;
22644;SDS011;11489;50.834;6.752;2023-02-16T12:56:20;19.58;;;11.70;;
22644;SDS011;11489;50.834;6.752;2023-02-16T12:58:50;20.45;;;12.60;;
22644;SDS011;11489;50.834;6.752;2023-02-16T13:01:25;18.10;;;11.68;;
22644;SDS011;11489;50.834;6.752;2023-02-16T13:03:56;18.80;;;12.23;;
22644;SDS011;11489;50.834;6.752;2023-02-16T13:06:35;20.42;;;11.60;;
22644;SDS011;11489;50.834;6.752;2023-02-16T13:14:45;22.92;;;11.65;;
22644;SDS011;11489;50.834;6.752;2023-02-16T13:17:33;20.02;;;12.13;;
22644;SDS011;11489;50.834;6.752;2023-02-16T13:20:10;19.15;;;11.65;;
22644;SDS011;11489;50.834;6.752;2023-02-16T13:34:10;17.67;;;11.52;;
22644;SDS011;11489;50.834;6.752;2023-02-16T13:36:59;21.67;;;11.48;;
22644;SDS011;11489;50.834;6.752;2023-02-16T13:42:28;18.50;;;11.60;;
22644;SDS011;11489;50.834;6.752;2023-02-16T13:45:18;18.60;;;11.50;;
22644;SDS011;11489;50.834;6.752;2023-02-16T13:47:47;18.25;;;11.73;;
22644;SDS011;11489;50.834;6.752;2023-02-16T13:52:51;19.63;;;11.35;;
22644;SDS011;11489;50.834;6.752;2023-02-16T13:55:29;19.67;;;12.02;;
22644;SDS011;11489;50.834;6.752;2023-02-16T13:58:01;18.55;;;10.82;;
22644;SDS011;11489;50.834;6.752;2023-02-16T14:03:01;19.25;;;10.60;;
22644;SDS011;11489;50.834;6.752;2023-02-16T14:05:53;17.65;;;10.60;;
22644;SDS011;11489;50.834;6.752;2023-02-16T14:08:40;14.27;;;9.70;;
22644;SDS011;11489;50.834;6.752;2023-02-16T14:11:06;16.90;;;10.63;;
22644;SDS011;11489;50.834;6.752;2023-02-16T14:16:07;17.67;;;11.00;;
22644;SDS011;11489;50.834;6.752;2023-02-16T14:21:38;17.75;;;10.07;;
22644;SDS011;11489;50.834;6.752;2023-02-16T14:26:56;15.65;;;10.30;;
22644;SDS011;11489;50.834;6.752;2023-02-16T14:32:26;16.92;;;10.70;;
22644;SDS011;11489;50.834;6.752;2023-02-16T14:34:56;17.02;;;10.20;;
22644;SDS011;11489;50.834;6.752;2023-02-16T14:37:31;20.90;;;10.50;;
22644;SDS011;11489;50.834;6.752;2023-02-16T14:40:13;16.13;;;10.93;;
22644;SDS011;11489;50.834;6.752;2023-02-16T14:42:43;16.48;;;9.98;;
22644;SDS011;11489;50.834;6.752;2023-02-16T14:51:13;14.43;;;8.27;;
22644;SDS011;11489;50.834;6.752;2023-02-16T14:54:26;15.57;;;8.20;;
22644;SDS011;11489;50.834;6.752;2023-02-16T14:57:15;16.70;;;8.38;;
22644;SDS011;11489;50.834;6.752;2023-02-16T14:59:54;12.95;;;7.82;;
22644;SDS011;11489;50.834;6.752;2023-02-16T15:02:36;12.73;;;7.95;;
22644;SDS011;11489;50.834;6.752;2023-02-16T15:05:14;15.80;;;7.88;;
22644;SDS011;11489;50.834;6.752;2023-02-16T15:07:42;10.38;;;7.20;;
22644;SDS011;11489;50.834;6.752;2023-02-16T15:10:12;13.15;;;7.07;;
22644;SDS011;11489;50.834;6.752;2023-02-16T15:12:38;9.60;;;6.80;;
22644;SDS011;11489;50.834;6.752;2023-02-16T15:15:05;10.88;;;7.40;;
22644;SDS011;11489;50.834;6.752;2023-02-16T15:23:15;10.75;;;6.22;;
22644;SDS011;11489;50.834;6.752;2023-02-16T15:25:54;10.77;;;6.28;;
22644;SDS011;11489;50.834;6.752;2023-02-16T15:28:32;11.27;;;6.60;;
22644;SDS011;11489;50.834;6.752;2023-02-16T15:31:00;11.57;;;6.50;;
22644;SDS011;11489;50.834;6.752;2023-02-16T15:33:32;10.48;;;5.90;;
22644;SDS011;11489;50.834;6.752;2023-02-16T15:36:06;11.13;;;6.43;;
22644;SDS011;11489;50.834;6.752;2023-02-16T15:38:52;8.82;;;5.90;;
22644;SDS011;11489;50.834;6.752;2023-02-16T15:41:26;10.70;;;6.22;;
22644;SDS011;11489;50.834;6.752;2023-02-16T15:43:54;11.93;;;5.45;;
22644;SDS011;11489;50.834;6.752;2023-02-16T15:46:28;9.82;;;5.97;;
22644;SDS011;11489;50.834;6.752;2023-02-16T15:48:56;10.73;;;5.45;;
22644;SDS011;11489;50.834;6.752;2023-02-16T15:51:29;9.65;;;5.32;;
22644;SDS011;11489;50.834;6.752;2023-02-16T15:54:01;6.93;;;5.18;;
22644;SDS011;11489;50.834;6.752;2023-02-16T15:56:32;11.05;;;5.25;;
22644;SDS011;11489;50.834;6.752;2023-02-16T16:02:03;10.13;;;5.47;;
22644;SDS011;11489;50.834;6.752;2023-02-16T16:04:50;11.68;;;5.82;;
22644;SDS011;11489;50.834;6.752;2023-02-16T16:07:24;8.43;;;5.43;;
22644;SDS011;11489;50.834;6.752;2023-02-16T16:10:02;10.18;;;5.63;;
22644;SDS011;11489;50.834;6.752;2023-02-16T16:12:37;9.88;;;5.95;;
22644;SDS011;11489;50.834;6.752;2023-02-16T16:15:03;12.25;;;6.47;;
22644;SDS011;11489;50.834;6.752;2023-02-16T16:17:30;9.90;;;6.53;;
22644;SDS011;11489;50.834;6.752;2023-02-16T16:20:16;8.40;;;5.72;;
22644;SDS011;11489;50.834;6.752;2023-02-16T16:23:02;8.15;;;5.43;;
22644;SDS011;11489;50.834;6.752;2023-02-16T16:25:35;10.10;;;5.93;;
22644;SDS011;11489;50.834;6.752;2023-02-16T16:28:04;9.90;;;5.57;;
22644;SDS011;11489;50.834;6.752;2023-02-16T16:30:35;9.82;;;5.82;;
22644;SDS011;11489;50.834;6.752;2023-02-16T16:33:03;12.15;;;6.63;;
22644;SDS011;11489;50.834;6.752;2023-02-16T16:38:00;11.20;;;6.60;;
22644;SDS011;11489;50.834;6.752;2023-02-16T16:40:33;12.48;;;7.50;;
22644;SDS011;11489;50.834;6.752;2023-02-16T16:45:37;12.73;;;8.02;;
22644;SDS011;11489;50.834;6.752;2023-02-16T16:48:24;12.02;;;7.07;;
22644;SDS011;11489;50.834;6.752;2023-02-16T16:56:17;12.63;;;7.53;;
22644;SDS011;11489;50.834;6.752;2023-02-16T16:58:46;14.05;;;8.25;;
22644;SDS011;11489;50.834;6.752;2023-02-16T17:01:16;15.23;;;8.05;;
22644;SDS011;11489;50.834;6.752;2023-02-16T17:03:43;15.50;;;8.48;;
22644;SDS011;11489;50.834;6.752;2023-02-16T17:06:09;15.18;;;8.55;;
22644;SDS011;11489;50.834;6.752;2023-02-16T17:08:34;16.70;;;8.63;;
22644;SDS011;11489;50.834;6.752;2023-02-16T17:11:01;15.20;;;8.50;;
22644;SDS011;11489;50.834;6.752;2023-02-16T17:13:28;16.25;;;9.15;;
22644;SDS011;11489;50.834;6.752;2023-02-16T17:15:55;15.88;;;9.10;;
22644;SDS011;11489;50.834;6.752;2023-02-16T17:18:24;15.25;;;8.25;;
22644;SDS011;11489;50.834;6.752;2023-02-16T17:20:50;14.70;;;8.82;;